sensor_id;sensor_type;location;lat;lon;timestamp;pressure;altitude;pressure_sealevel;temperature;humidity
3260;BME280;68938;48.150;14.004;2024-03-08T00:00:22;98218.25;;;5.93;71.66
3260;BME280;68938;48.150;14.004;2024-03-08T00:02:49;98209.69;;;6.02;71.47
3260;BME280;68938;48.150;14.004;2024-03-08T00:05:16;98215.56;;;6.07;70.40
3260;BME280;68938;48.150;14.004;2024-03-08T00:07:43;98219.59;;;6.26;70.39
3260;BME280;68938;48.150;14.004;2024-03-08T00:10:11;98219.84;;;6.03;70.36
3260;BME280;68938;48.150;14.004;2024-03-08T00:12:42;98222.41;;;6.02;71.01
3260;BME280;68938;48.150;14.004;2024-03-08T00:15:12;98212.16;;;6.09;70.01
3260;BME280;68938;48.150;14.004;2024-03-08T00:17:42;98219.66;;;6.20;69.83
3260;BME280;68938;48.150;14.004;2024-03-08T00:20:10;98216.34;;;6.13;69.47
3260;BME280;68938;48.150;14.004;2024-03-08T00:22:38;98213.88;;;6.04;69.77
3260;BME280;68938;48.150;14.004;2024-03-08T00:25:06;98211.13;;;6.24;69.21
3260;BME280;68938;48.150;14.004;2024-03-08T00:27:34;98217.22;;;6.09;69.27
3260;BME280;68938;48.150;14.004;2024-03-08T00:30:03;98206.13;;;6.15;68.97
3260;BME280;68938;48.150;14.004;2024-03-08T00:32:30;98212.91;;;6.16;68.79
3260;BME280;68938;48.150;14.004;2024-03-08T00:34:57;98201.16;;;6.04;69.41
3260;BME280;68938;48.150;14.004;2024-03-08T00:37:24;98208.78;;;6.06;68.98
3260;BME280;68938;48.150;14.004;2024-03-08T00:39:52;98202.22;;;5.80;69.95
3260;BME280;68938;48.150;14.004;2024-03-08T00:42:19;98201.47;;;5.69;70.00
3260;BME280;68938;48.150;14.004;2024-03-08T00:44:48;98190.47;;;5.64;70.58
3260;BME280;68938;48.150;14.004;2024-03-08T00:47:15;98188.69;;;5.77;69.64
3260;BME280;68938;48.150;14.004;2024-03-08T00:49:42;98199.50;;;6.00;69.20
3260;BME280;68938;48.150;14.004;2024-03-08T00:52:09;98197.97;;;5.81;69.67
3260;BME280;68938;48.150;14.004;2024-03-08T00:54:36;98197.88;;;5.90;69.19
3260;BME280;68938;48.150;14.004;2024-03-08T00:57:04;98181.13;;;5.69;69.59
3260;BME280;68938;48.150;14.004;2024-03-08T00:59:31;98181.91;;;5.74;69.38
3260;BME280;68938;48.150;14.004;2024-03-08T01:01:59;98183.44;;;5.90;68.88
3260;BME280;68938;48.150;14.004;2024-03-08T01:04:27;98181.13;;;5.67;68.81
3260;BME280;68938;48.150;14.004;2024-03-08T01:06:57;98175.31;;;5.53;70.01
3260;BME280;68938;48.150;14.004;2024-03-08T01:09:25;98166.75;;;5.65;68.80
3260;BME280;68938;48.150;14.004;2024-03-08T01:11:54;98160.00;;;5.59;69.39
3260;BME280;68938;48.150;14.004;2024-03-08T01:14:23;98170.19;;;5.59;69.12
3260;BME280;68938;48.150;14.004;2024-03-08T01:16:50;98170.06;;;5.70;68.57
3260;BME280;68938;48.150;14.004;2024-03-08T01:19:18;98155.19;;;5.32;69.74
3260;BME280;68938;48.150;14.004;2024-03-08T01:21:44;98154.34;;;5.30;69.75
3260;BME280;68938;48.150;14.004;2024-03-08T01:24:11;98165.16;;;5.55;69.19
3260;BME280;68938;48.150;14.004;2024-03-08T01:26:38;98148.41;;;5.29;69.59
3260;BME280;68938;48.150;14.004;2024-03-08T01:29:05;98154.25;;;5.39;69.69
3260;BME280;68938;48.150;14.004;2024-03-08T01:31:33;98144.22;;;5.27;69.51
3260;BME280;68938;48.150;14.004;2024-03-08T01:34:00;98146.91;;;5.07;69.77
3260;BME280;68938;48.150;14.004;2024-03-08T01:36:27;98150.28;;;5.09;70.35
3260;BME280;68938;48.150;14.004;2024-03-08T01:38:54;98146.75;;;5.25;69.89
3260;BME280;68938;48.150;14.004;2024-03-08T01:41:21;98148.47;;;5.23;69.75
3260;BME280;68938;48.150;14.004;2024-03-08T01:43:48;98139.97;;;5.27;69.52
3260;BME280;68938;48.150;14.004;2024-03-08T01:46:18;98136.06;;;4.83;71.08
3260;BME280;68938;48.150;14.004;2024-03-08T01:48:46;98135.88;;;5.11;70.23
3260;BME280;68938;48.150;14.004;2024-03-08T01:51:13;98139.25;;;5.08;70.62
3260;BME280;68938;48.150;14.004;2024-03-08T01:53:42;98134.16;;;5.13;70.22
3260;BME280;68938;48.150;14.004;2024-03-08T01:56:11;98136.56;;;5.28;69.90
3260;BME280;68938;48.150;14.004;2024-03-08T01:58:40;98123.13;;;5.12;69.86
3260;BME280;68938;48.150;14.004;2024-03-08T02:01:10;98128.00;;;5.38;69.22
3260;BME280;68938;48.150;14.004;2024-03-08T02:03:38;98131.13;;;5.63;68.17
3260;BME280;68938;48.150;14.004;2024-03-08T02:06:05;98116.72;;;5.62;67.96
3260;BME280;68938;48.150;14.004;2024-03-08T02:08:32;98117.34;;;5.83;66.62
3260;BME280;68938;48.150;14.004;2024-03-08T02:10:59;98115.00;;;5.66;67.43
3260;BME280;68938;48.150;14.004;2024-03-08T02:13:26;98124.09;;;5.88;66.74
3260;BME280;68938;48.150;14.004;2024-03-08T02:15:58;98115.59;;;5.89;66.32
3260;BME280;68938;48.150;14.004;2024-03-08T02:18:27;98120.91;;;5.68;67.22
3260;BME280;68938;48.150;14.004;2024-03-08T02:20:57;98114.16;;;5.65;67.17
3260;BME280;68938;48.150;14.004;2024-03-08T02:23:26;98111.63;;;5.65;67.37
3260;BME280;68938;48.150;14.004;2024-03-08T02:25:55;98110.72;;;5.71;66.70
3260;BME280;68938;48.150;14.004;2024-03-08T02:28:23;98103.13;;;5.65;66.97
3260;BME280;68938;48.150;14.004;2024-03-08T02:30:51;98105.56;;;5.76;66.55
3260;BME280;68938;48.150;14.004;2024-03-08T02:33:18;98104.09;;;5.55;67.18
3260;BME280;68938;48.150;14.004;2024-03-08T02:35:47;98100.00;;;5.38;67.78
3260;BME280;68938;48.150;14.004;2024-03-08T02:38:15;98104.16;;;5.49;67.33
3260;BME280;68938;48.150;14.004;2024-03-08T02:40:44;98091.41;;;5.50;67.52
3260;BME280;68938;48.150;14.004;2024-03-08T02:43:12;98100.75;;;5.50;67.67
3260;BME280;68938;48.150;14.004;2024-03-08T02:45:40;98098.91;;;5.62;67.50
3260;BME280;68938;48.150;14.004;2024-03-08T02:48:08;98088.75;;;5.62;66.94
3260;BME280;68938;48.150;14.004;2024-03-08T02:50:35;98097.31;;;5.54;67.31
3260;BME280;68938;48.150;14.004;2024-03-08T02:53:03;98093.09;;;5.54;67.36
3260;BME280;68938;48.150;14.004;2024-03-08T02:55:30;98086.22;;;5.61;67.33
3260;BME280;68938;48.150;14.004;2024-03-08T02:57:57;98080.38;;;5.50;67.73
3260;BME280;68938;48.150;14.004;2024-03-08T03:00:24;98081.47;;;5.26;68.34
3260;BME280;68938;48.150;14.004;2024-03-08T03:02:51;98084.03;;;5.27;68.56
3260;BME280;68938;48.150;14.004;2024-03-08T03:05:18;98078.22;;;5.13;68.72
3260;BME280;68938;48.150;14.004;2024-03-08T03:07:45;98075.00;;;4.94;69.72
3260;BME280;68938;48.150;14.004;2024-03-08T03:10:12;98077.69;;;4.75;70.20
3260;BME280;68938;48.150;14.004;2024-03-08T03:12:39;98069.19;;;4.78;70.63
3260;BME280;68938;48.150;14.004;2024-03-08T03:15:06;98083.63;;;4.73;70.49
3260;BME280;68938;48.150;14.004;2024-03-08T03:17:33;98073.47;;;4.73;70.78
3260;BME280;68938;48.150;14.004;2024-03-08T03:20:01;98078.31;;;5.02;69.97
3260;BME280;68938;48.150;14.004;2024-03-08T03:22:27;98064.06;;;4.84;70.70
3260;BME280;68938;48.150;14.004;2024-03-08T03:24:54;98072.63;;;4.74;70.56
3260;BME280;68938;48.150;14.004;2024-03-08T03:27:21;98071.69;;;4.84;70.35
3260;BME280;68938;48.150;14.004;2024-03-08T03:29:48;98074.22;;;4.86;70.19
3260;BME280;68938;48.150;14.004;2024-03-08T03:32:15;98082.84;;;4.65;71.09
3260;BME280;68938;48.150;14.004;2024-03-08T03:34:42;98076.06;;;4.64;71.03
3260;BME280;68938;48.150;14.004;2024-03-08T03:37:09;98084.56;;;4.60;71.29
3260;BME280;68938;48.150;14.004;2024-03-08T03:39:36;98061.69;;;4.66;70.84
3260;BME280;68938;48.150;14.004;2024-03-08T03:42:03;98062.75;;;4.34;71.58
3260;BME280;68938;48.150;14.004;2024-03-08T03:44:31;98066.88;;;4.46;71.59
3260;BME280;68938;48.150;14.004;2024-03-08T03:46:58;98065.97;;;4.55;71.24
3260;BME280;68938;48.150;14.004;2024-03-08T03:49:25;98064.34;;;4.49;70.97
3260;BME280;68938;48.150;14.004;2024-03-08T03:51:52;98072.69;;;4.63;70.72
3260;BME280;68938;48.150;14.004;2024-03-08T03:54:19;98060.81;;;4.67;70.34
3260;BME280;68938;48.150;14.004;2024-03-08T03:56:46;98064.38;;;4.40;71.47
3260;BME280;68938;48.150;14.004;2024-03-08T03:59:13;98048.13;;;4.65;70.60
3260;BME280;68938;48.150;14.004;2024-03-08T04:01:42;98055.97;;;4.33;71.19
3260;BME280;68938;48.150;14.004;2024-03-08T04:04:09;98050.06;;;4.30;72.00
3260;BME280;68938;48.150;14.004;2024-03-08T04:06:36;98053.56;;;4.10;72.38
3260;BME280;68938;48.150;14.004;2024-03-08T04:09:03;98062.03;;;4.11;72.80
3260;BME280;68938;48.150;14.004;2024-03-08T04:11:30;98048.31;;;4.39;71.42
3260;BME280;68938;48.150;14.004;2024-03-08T04:13:57;98055.97;;;4.33;71.62
3260;BME280;68938;48.150;14.004;2024-03-08T04:16:24;98050.84;;;4.42;71.24
3260;BME280;68938;48.150;14.004;2024-03-08T04:18:52;98035.56;;;4.44;70.85
3260;BME280;68938;48.150;14.004;2024-03-08T04:21:19;98040.63;;;4.48;71.01
3260;BME280;68938;48.150;14.004;2024-03-08T04:23:46;98039.00;;;4.40;71.18
3260;BME280;68938;48.150;14.004;2024-03-08T04:26:13;98045.81;;;4.33;71.42
3260;BME280;68938;48.150;14.004;2024-03-08T04:28:43;98044.16;;;4.26;71.96
3260;BME280;68938;48.150;14.004;2024-03-08T04:31:10;98043.16;;;4.47;71.77
3260;BME280;68938;48.150;14.004;2024-03-08T04:33:37;98033.00;;;4.50;71.09
3260;BME280;68938;48.150;14.004;2024-03-08T04:36:04;98034.56;;;4.66;70.35
3260;BME280;68938;48.150;14.004;2024-03-08T04:38:31;98037.88;;;4.79;70.04
3260;BME280;68938;48.150;14.004;2024-03-08T04:40:59;98036.28;;;4.66;70.30
3260;BME280;68938;48.150;14.004;2024-03-08T04:43:26;98043.63;;;4.96;69.36
3260;BME280;68938;48.150;14.004;2024-03-08T04:45:53;98047.00;;;4.95;68.83
3260;BME280;68938;48.150;14.004;2024-03-08T04:48:20;98041.91;;;4.98;68.72
3260;BME280;68938;48.150;14.004;2024-03-08T04:50:47;98047.09;;;4.89;69.01
3260;BME280;68938;48.150;14.004;2024-03-08T04:53:14;98046.22;;;4.89;69.06
3260;BME280;68938;48.150;14.004;2024-03-08T04:55:41;98050.47;;;4.90;69.03
3260;BME280;68938;48.150;14.004;2024-03-08T04:58:08;98039.41;;;4.94;69.17
3260;BME280;68938;48.150;14.004;2024-03-08T05:00:35;98051.09;;;5.13;68.39
3260;BME280;68938;48.150;14.004;2024-03-08T05:03:02;98047.22;;;4.72;69.58
3260;BME280;68938;48.150;14.004;2024-03-08T05:05:29;98043.19;;;4.48;70.86
3260;BME280;68938;48.150;14.004;2024-03-08T05:07:56;98042.97;;;4.74;70.37
3260;BME280;68938;48.150;14.004;2024-03-08T05:10:23;98041.25;;;4.80;70.43
3260;BME280;68938;48.150;14.004;2024-03-08T05:12:50;98044.41;;;5.02;69.36
3260;BME280;68938;48.150;14.004;2024-03-08T05:15:20;98045.09;;;5.19;68.18
3260;BME280;68938;48.150;14.004;2024-03-08T05:17:47;98038.59;;;4.90;69.45
3260;BME280;68938;48.150;14.004;2024-03-08T05:20:14;98042.59;;;5.16;69.04
3260;BME280;68938;48.150;14.004;2024-03-08T05:22:41;98034.16;;;5.12;69.07
3260;BME280;68938;48.150;14.004;2024-03-08T05:25:08;98030.91;;;4.98;69.58
3260;BME280;68938;48.150;14.004;2024-03-08T05:27:35;98024.50;;;4.51;71.27
3260;BME280;68938;48.150;14.004;2024-03-08T05:30:03;98017.75;;;4.53;71.37
3260;BME280;68938;48.150;14.004;2024-03-08T05:32:31;98024.47;;;4.57;72.01
3260;BME280;68938;48.150;14.004;2024-03-08T05:34:58;98017.75;;;4.50;71.80
3260;BME280;68938;48.150;14.004;2024-03-08T05:37:25;98019.47;;;4.49;72.04
3260;BME280;68938;48.150;14.004;2024-03-08T05:39:52;98027.84;;;4.59;72.03
3260;BME280;68938;48.150;14.004;2024-03-08T05:42:19;98026.91;;;4.71;71.49
3260;BME280;68938;48.150;14.004;2024-03-08T05:44:46;98021.88;;;4.65;72.01
3260;BME280;68938;48.150;14.004;2024-03-08T05:47:13;98025.44;;;4.42;72.31
3260;BME280;68938;48.150;14.004;2024-03-08T05:49:40;98030.03;;;3.84;74.35
3260;BME280;68938;48.150;14.004;2024-03-08T05:52:07;98012.25;;;3.87;74.98
3260;BME280;68938;48.150;14.004;2024-03-08T05:54:34;98029.13;;;3.94;74.52
3260;BME280;68938;48.150;14.004;2024-03-08T05:57:01;98010.47;;;4.01;74.78
3260;BME280;68938;48.150;14.004;2024-03-08T05:59:28;98018.88;;;4.14;74.24
3260;BME280;68938;48.150;14.004;2024-03-08T06:01:55;98027.41;;;3.97;74.88
3260;BME280;68938;48.150;14.004;2024-03-08T06:04:22;98011.19;;;4.24;73.75
3260;BME280;68938;48.150;14.004;2024-03-08T06:06:49;98019.78;;;4.03;74.85
3260;BME280;68938;48.150;14.004;2024-03-08T06:09:18;98029.97;;;3.94;74.84
3260;BME280;68938;48.150;14.004;2024-03-08T06:11:45;98006.03;;;4.34;73.55
3260;BME280;68938;48.150;14.004;2024-03-08T06:14:12;98016.09;;;4.46;72.93
3260;BME280;68938;48.150;14.004;2024-03-08T06:16:39;98011.81;;;4.51;72.61
3260;BME280;68938;48.150;14.004;2024-03-08T06:19:06;98018.72;;;4.38;73.43
3260;BME280;68938;48.150;14.004;2024-03-08T06:21:33;98015.38;;;4.27;73.30
3260;BME280;68938;48.150;14.004;2024-03-08T06:24:00;98018.84;;;4.18;73.72
3260;BME280;68938;48.150;14.004;2024-03-08T06:26:27;98010.06;;;4.59;72.61
3260;BME280;68938;48.150;14.004;2024-03-08T06:28:57;98012.81;;;4.30;73.33
3260;BME280;68938;48.150;14.004;2024-03-08T06:31:25;98012.03;;;4.23;73.49
3260;BME280;68938;48.150;14.004;2024-03-08T06:33:52;98012.63;;;4.59;72.73
3260;BME280;68938;48.150;14.004;2024-03-08T06:36:19;98014.31;;;4.62;72.78
3260;BME280;68938;48.150;14.004;2024-03-08T06:38:46;98015.25;;;4.44;72.80
3260;BME280;68938;48.150;14.004;2024-03-08T06:41:14;98015.16;;;4.58;72.05
3260;BME280;68938;48.150;14.004;2024-03-08T06:43:45;98021.88;;;4.63;72.59
3260;BME280;68938;48.150;14.004;2024-03-08T06:46:14;98015.19;;;4.53;72.53
3260;BME280;68938;48.150;14.004;2024-03-08T06:48:42;98023.31;;;4.92;71.73
3260;BME280;68938;48.150;14.004;2024-03-08T06:51:09;98028.63;;;4.72;72.14
3260;BME280;68938;48.150;14.004;2024-03-08T06:53:36;98019.38;;;4.62;72.10
3260;BME280;68938;48.150;14.004;2024-03-08T06:56:03;98026.94;;;4.69;72.00
3260;BME280;68938;48.150;14.004;2024-03-08T06:58:30;98020.13;;;4.71;72.32
3260;BME280;68938;48.150;14.004;2024-03-08T07:00:57;98022.59;;;4.81;71.66
3260;BME280;68938;48.150;14.004;2024-03-08T07:03:24;98015.47;;;5.18;70.56
3260;BME280;68938;48.150;14.004;2024-03-08T07:05:51;98011.09;;;5.29;70.28
3260;BME280;68938;48.150;14.004;2024-03-08T07:08:18;98023.81;;;5.29;69.90
3260;BME280;68938;48.150;14.004;2024-03-08T07:10:45;98013.56;;;5.37;69.47
3260;BME280;68938;48.150;14.004;2024-03-08T07:13:12;98014.09;;;5.63;69.22
3260;BME280;68938;48.150;14.004;2024-03-08T07:15:39;98004.69;;;5.72;68.54
3260;BME280;68938;48.150;14.004;2024-03-08T07:18:06;98006.59;;;5.54;69.18
3260;BME280;68938;48.150;14.004;2024-03-08T07:20:33;98006.56;;;5.57;68.84
3260;BME280;68938;48.150;14.004;2024-03-08T07:23:00;98006.00;;;5.31;69.91
3260;BME280;68938;48.150;14.004;2024-03-08T07:25:27;97999.16;;;5.37;70.20
3260;BME280;68938;48.150;14.004;2024-03-08T07:27:55;98009.09;;;5.57;69.39
3260;BME280;68938;48.150;14.004;2024-03-08T07:30:26;97988.03;;;5.43;70.19
3260;BME280;68938;48.150;14.004;2024-03-08T07:32:55;97997.84;;;5.74;69.02
3260;BME280;68938;48.150;14.004;2024-03-08T07:35:22;97968.31;;;5.62;69.06
3260;BME280;68938;48.150;14.004;2024-03-08T07:37:49;97996.56;;;5.42;69.94
3260;BME280;68938;48.150;14.004;2024-03-08T07:40:16;97986.28;;;5.50;70.06
3260;BME280;68938;48.150;14.004;2024-03-08T07:42:43;97987.91;;;5.55;69.37
3260;BME280;68938;48.150;14.004;2024-03-08T07:45:10;97982.91;;;5.49;69.97
3260;BME280;68938;48.150;14.004;2024-03-08T07:47:37;97979.41;;;5.56;69.79
3260;BME280;68938;48.150;14.004;2024-03-08T07:50:05;97975.88;;;5.66;69.62
3260;BME280;68938;48.150;14.004;2024-03-08T07:52:33;97964.78;;;5.74;69.27
3260;BME280;68938;48.150;14.004;2024-03-08T07:55:00;97974.09;;;5.73;69.93
3260;BME280;68938;48.150;14.004;2024-03-08T07:57:27;97971.53;;;5.76;69.81
3260;BME280;68938;48.150;14.004;2024-03-08T07:59:54;97974.00;;;5.81;69.75
3260;BME280;68938;48.150;14.004;2024-03-08T08:02:21;97974.09;;;5.73;70.10
3260;BME280;68938;48.150;14.004;2024-03-08T08:04:48;97975.34;;;5.43;69.68
3260;BME280;68938;48.150;14.004;2024-03-08T08:07:15;97977.06;;;5.39;70.29
3260;BME280;68938;48.150;14.004;2024-03-08T08:09:42;97978.06;;;5.28;71.04
3260;BME280;68938;48.150;14.004;2024-03-08T08:12:09;97972.97;;;5.28;70.85
3260;BME280;68938;48.150;14.004;2024-03-08T08:14:36;97983.25;;;5.20;70.60
3260;BME280;68938;48.150;14.004;2024-03-08T08:17:03;97978.34;;;5.03;71.66
3260;BME280;68938;48.150;14.004;2024-03-08T08:19:30;97967.97;;;5.23;70.44
3260;BME280;68938;48.150;14.004;2024-03-08T08:21:58;97968.63;;;5.37;70.00
3260;BME280;68938;48.150;14.004;2024-03-08T08:24:24;97977.81;;;5.49;69.86
3260;BME280;68938;48.150;14.004;2024-03-08T08:26:51;97973.47;;;5.57;69.03
3260;BME280;68938;48.150;14.004;2024-03-08T08:29:18;97968.41;;;5.57;68.81
3260;BME280;68938;48.150;14.004;2024-03-08T08:31:46;97972.50;;;5.66;68.57
3260;BME280;68938;48.150;14.004;2024-03-08T08:34:13;97963.28;;;5.59;68.79
3260;BME280;68938;48.150;14.004;2024-03-08T08:36:40;97958.25;;;5.54;68.72
3260;BME280;68938;48.150;14.004;2024-03-08T08:41:40;97962.25;;;5.70;68.69
3260;BME280;68938;48.150;14.004;2024-03-08T08:44:07;97959.44;;;5.93;68.13
3260;BME280;68938;48.150;14.004;2024-03-08T08:46:42;97962.25;;;6.34;67.64
3260;BME280;68938;48.150;14.004;2024-03-08T08:49:09;97952.88;;;6.36;67.08
3260;BME280;68938;48.150;14.004;2024-03-08T08:51:36;97950.34;;;6.34;66.68
3260;BME280;68938;48.150;14.004;2024-03-08T08:54:03;97942.81;;;6.76;66.45
3260;BME280;68938;48.150;14.004;2024-03-08T08:56:33;97942.38;;;7.01;65.39
3260;BME280;68938;48.150;14.004;2024-03-08T08:58:59;97928.50;;;6.69;65.03
3260;BME280;68938;48.150;14.004;2024-03-08T09:01:26;97940.13;;;6.36;65.56
3260;BME280;68938;48.150;14.004;2024-03-08T09:03:53;97934.97;;;6.39;65.51
3260;BME280;68938;48.150;14.004;2024-03-08T09:06:20;97927.44;;;6.33;66.07
3260;BME280;68938;48.150;14.004;2024-03-08T09:08:47;97920.84;;;6.21;66.21
3260;BME280;68938;48.150;14.004;2024-03-08T09:11:14;97918.31;;;6.18;67.34
3260;BME280;68938;48.150;14.004;2024-03-08T09:13:44;97923.09;;;6.39;66.88
3260;BME280;68938;48.150;14.004;2024-03-08T09:16:11;97902.38;;;6.58;66.58
3260;BME280;68938;48.150;14.004;2024-03-08T09:18:38;97902.66;;;6.91;67.03
3260;BME280;68938;48.150;14.004;2024-03-08T09:21:05;97898.13;;;7.05;66.66
3260;BME280;68938;48.150;14.004;2024-03-08T09:23:32;97889.34;;;7.18;65.63
3260;BME280;68938;48.150;14.004;2024-03-08T09:25:59;97890.63;;;7.38;65.45
3260;BME280;68938;48.150;14.004;2024-03-08T09:28:26;97884.34;;;7.54;64.25
3260;BME280;68938;48.150;14.004;2024-03-08T09:30:53;97884.63;;;7.79;63.56
3260;BME280;68938;48.150;14.004;2024-03-08T09:33:26;97869.72;;;7.98;63.07
3260;BME280;68938;48.150;14.004;2024-03-08T09:35:53;97875.34;;;8.12;62.31
3260;BME280;68938;48.150;14.004;2024-03-08T09:38:20;97868.44;;;7.80;61.14
3260;BME280;68938;48.150;14.004;2024-03-08T09:40:46;97872.81;;;7.75;62.53
3260;BME280;68938;48.150;14.004;2024-03-08T09:43:13;97854.88;;;7.78;62.12
3260;BME280;68938;48.150;14.004;2024-03-08T09:45:40;97869.06;;;7.52;62.44
3260;BME280;68938;48.150;14.004;2024-03-08T09:48:11;97864.75;;;7.92;61.66
3260;BME280;68938;48.150;14.004;2024-03-08T09:50:39;97852.06;;;8.23;61.60
3260;BME280;68938;48.150;14.004;2024-03-08T09:53:07;97859.06;;;8.50;60.34
3260;BME280;68938;48.150;14.004;2024-03-08T09:55:37;97854.91;;;8.79;60.34
3260;BME280;68938;48.150;14.004;2024-03-08T09:58:05;97848.22;;;9.05;58.54
3260;BME280;68938;48.150;14.004;2024-03-08T10:00:33;97847.69;;;8.93;58.30
3260;BME280;68938;48.150;14.004;2024-03-08T10:03:03;97844.81;;;9.34;58.59
3260;BME280;68938;48.150;14.004;2024-03-08T10:05:30;97841.53;;;9.30;57.64
3260;BME280;68938;48.150;14.004;2024-03-08T10:07:58;97836.66;;;9.21;57.59
3260;BME280;68938;48.150;14.004;2024-03-08T10:10:25;97832.03;;;9.34;58.06
3260;BME280;68938;48.150;14.004;2024-03-08T10:12:52;97838.16;;;9.56;56.73
3260;BME280;68938;48.150;14.004;2024-03-08T10:15:19;97836.41;;;9.58;56.17
3260;BME280;68938;48.150;14.004;2024-03-08T10:17:46;97824.28;;;9.35;55.87
3260;BME280;68938;48.150;14.004;2024-03-08T10:20:17;97822.22;;;9.18;56.43
3260;BME280;68938;48.150;14.004;2024-03-08T10:22:45;97822.75;;;9.58;55.15
3260;BME280;68938;48.150;14.004;2024-03-08T10:25:28;97814.66;;;9.43;56.44
3260;BME280;68938;48.150;14.004;2024-03-08T10:27:56;97820.94;;;9.33;55.29
3260;BME280;68938;48.150;14.004;2024-03-08T10:30:23;97814.56;;;9.18;55.94
3260;BME280;68938;48.150;14.004;2024-03-08T10:32:50;97810.50;;;9.39;56.24
3260;BME280;68938;48.150;14.004;2024-03-08T10:35:17;97809.66;;;9.67;55.24
3260;BME280;68938;48.150;14.004;2024-03-08T10:37:48;97808.44;;;10.05;55.36
3260;BME280;68938;48.150;14.004;2024-03-08T10:40:18;97800.97;;;10.26;54.10
3260;BME280;68938;48.150;14.004;2024-03-08T10:42:57;97799.78;;;10.08;53.27
3260;BME280;68938;48.150;14.004;2024-03-08T10:45:38;97798.06;;;10.08;54.51
3260;BME280;68938;48.150;14.004;2024-03-08T10:50:50;97795.00;;;10.24;53.61
3260;BME280;68938;48.150;14.004;2024-03-08T10:53:18;97788.00;;;10.29;53.54
3260;BME280;68938;48.150;14.004;2024-03-08T10:55:46;97788.88;;;10.53;53.85
3260;BME280;68938;48.150;14.004;2024-03-08T10:58:14;97778.47;;;11.04;52.87
3260;BME280;68938;48.150;14.004;2024-03-08T11:00:42;97772.94;;;11.15;52.13
3260;BME280;68938;48.150;14.004;2024-03-08T11:03:47;97774.16;;;11.05;52.08
3260;BME280;68938;48.150;14.004;2024-03-08T11:07:04;97769.16;;;11.02;52.74
3260;BME280;68938;48.150;14.004;2024-03-08T11:09:27;97763.22;;;11.00;52.53
3260;BME280;68938;48.150;14.004;2024-03-08T11:12:20;97754.16;;;10.91;53.11
3260;BME280;68938;48.150;14.004;2024-03-08T11:14:49;97756.25;;;11.03;52.77
3260;BME280;68938;48.150;14.004;2024-03-08T11:19:59;97746.09;;;11.44;52.23
3260;BME280;68938;48.150;14.004;2024-03-08T11:22:31;97743.09;;;11.55;51.93
3260;BME280;68938;48.150;14.004;2024-03-08T11:25:04;97743.50;;;11.88;51.79
3260;BME280;68938;48.150;14.004;2024-03-08T11:27:31;97741.97;;;12.04;51.29
3260;BME280;68938;48.150;14.004;2024-03-08T11:32:31;97737.53;;;11.66;50.98
3260;BME280;68938;48.150;14.004;2024-03-08T11:34:59;97724.69;;;11.66;50.72
3260;BME280;68938;48.150;14.004;2024-03-08T11:37:28;97729.69;;;11.69;51.33
3260;BME280;68938;48.150;14.004;2024-03-08T11:39:55;97728.72;;;11.73;51.43
3260;BME280;68938;48.150;14.004;2024-03-08T11:42:22;97722.25;;;11.42;52.15
3260;BME280;68938;48.150;14.004;2024-03-08T11:44:50;97721.09;;;11.27;52.40
3260;BME280;68938;48.150;14.004;2024-03-08T11:47:18;97708.94;;;11.32;52.52
3260;BME280;68938;48.150;14.004;2024-03-08T11:49:45;97714.25;;;11.06;53.52
3260;BME280;68938;48.150;14.004;2024-03-08T11:52:16;97715.97;;;11.05;53.58
3260;BME280;68938;48.150;14.004;2024-03-08T11:54:52;97698.16;;;10.79;54.13
3260;BME280;68938;48.150;14.004;2024-03-08T11:57:23;97698.41;;;10.73;53.89
3260;BME280;68938;48.150;14.004;2024-03-08T11:59:54;97699.69;;;10.84;53.98
3260;BME280;68938;48.150;14.004;2024-03-08T12:02:23;97697.97;;;10.83;54.29
3260;BME280;68938;48.150;14.004;2024-03-08T12:04:58;97689.22;;;11.11;54.47
3260;BME280;68938;48.150;14.004;2024-03-08T12:07:27;97686.56;;;11.34;52.66
3260;BME280;68938;48.150;14.004;2024-03-08T12:10:20;97695.81;;;11.60;53.23
3260;BME280;68938;48.150;14.004;2024-03-08T12:12:50;97684.31;;;11.69;52.85
3260;BME280;68938;48.150;14.004;2024-03-08T12:15:23;97691.28;;;11.66;52.59
3260;BME280;68938;48.150;14.004;2024-03-08T12:17:51;97682.19;;;11.99;52.31
3260;BME280;68938;48.150;14.004;2024-03-08T12:20:21;97666.47;;;12.07;51.40
3260;BME280;68938;48.150;14.004;2024-03-08T12:22:51;97677.72;;;12.23;50.63
3260;BME280;68938;48.150;14.004;2024-03-08T12:25:20;97663.72;;;12.10;51.38
3260;BME280;68938;48.150;14.004;2024-03-08T12:27:47;97662.41;;;11.60;52.05
3260;BME280;68938;48.150;14.004;2024-03-08T12:30:26;97661.75;;;11.96;51.67
3260;BME280;68938;48.150;14.004;2024-03-08T12:32:57;97651.31;;;12.20;50.79
3260;BME280;68938;48.150;14.004;2024-03-08T12:35:27;97647.44;;;12.30;51.61
3260;BME280;68938;48.150;14.004;2024-03-08T12:37:56;97642.38;;;11.89;52.08
3260;BME280;68938;48.150;14.004;2024-03-08T12:40:29;97646.03;;;11.63;52.41
3260;BME280;68938;48.150;14.004;2024-03-08T12:42:58;97629.91;;;11.59;51.81
3260;BME280;68938;48.150;14.004;2024-03-08T12:45:25;97633.09;;;11.87;51.92
3260;BME280;68938;48.150;14.004;2024-03-08T12:47:53;97634.97;;;12.02;52.13
3260;BME280;68938;48.150;14.004;2024-03-08T12:50:24;97624.06;;;11.76;52.24
3260;BME280;68938;48.150;14.004;2024-03-08T12:52:52;97631.22;;;12.09;51.23
3260;BME280;68938;48.150;14.004;2024-03-08T12:55:19;97627.34;;;12.19;51.29
3260;BME280;68938;48.150;14.004;2024-03-08T12:57:47;97623.75;;;11.84;52.34
3260;BME280;68938;48.150;14.004;2024-03-08T13:00:14;97623.56;;;11.89;52.02
3260;BME280;68938;48.150;14.004;2024-03-08T13:02:42;97616.84;;;12.05;51.86
3260;BME280;68938;48.150;14.004;2024-03-08T13:05:08;97617.19;;;12.16;51.90
3260;BME280;68938;48.150;14.004;2024-03-08T13:07:35;97607.97;;;12.12;51.18
3260;BME280;68938;48.150;14.004;2024-03-08T13:10:03;97613.38;;;12.63;50.68
3260;BME280;68938;48.150;14.004;2024-03-08T13:12:31;97607.72;;;12.54;49.95
3260;BME280;68938;48.150;14.004;2024-03-08T13:14:58;97611.84;;;12.59;50.02
3260;BME280;68938;48.150;14.004;2024-03-08T13:17:25;97600.38;;;12.09;50.69
3260;BME280;68938;48.150;14.004;2024-03-08T13:19:52;97603.59;;;12.14;50.73
3260;BME280;68938;48.150;14.004;2024-03-08T13:22:19;97597.22;;;11.83;51.83
3260;BME280;68938;48.150;14.004;2024-03-08T13:24:46;97599.25;;;11.96;51.42